Time;durP1;ratioP1;P1;durP2;ratioP2;P2;SDS_P1;SDS_P2;PMS_P1;PMS_P2;Temp;Humidity;BMP_temperature;BMP_pressure;BME280_temperature;BME280_humidity;BME280_pressure;Samples;Min_cycle;Max_cycle;Signal;HPM_P1;HPM_P2
2021/12/12 00:01:06;;;;;;;15.30;6.85;;;6.40;99.90;;;;;;2071657;28;20101;-72
2021/12/12 00:02:18;;;;;;;16.05;7.05;;;6.40;99.90;;;;;;2071231;28;20105;-71
2021/12/12 00:03:33;;;;;;;14.10;6.53;;;6.40;99.90;;;;;;2071998;28;20100;-71
2021/12/12 00:04:37;;;;;;;19.88;7.25;;;6.40;99.90;;;;;;2071667;28;20133;-71
2021/12/12 00:05:53;;;;;;;13.30;6.32;;;6.40;99.90;;;;;;2071548;28;20026;-71
2021/12/12 00:06:56;;;;;;;14.77;7.13;;;6.40;99.90;;;;;;2071493;28;20032;-71
2021/12/12 00:07:58;;;;;;;13.07;6.38;;;6.40;99.90;;;;;;2070916;28;20033;-71
2021/12/12 00:09:05;;;;;;;17.85;7.75;;;6.40;99.90;;;;;;2070864;28;20121;-71
2021/12/12 00:10:12;;;;;;;14.20;7.05;;;6.40;99.90;;;;;;2071432;28;20022;-71
2021/12/12 00:11:17;;;;;;;14.98;6.55;;;6.40;99.90;;;;;;2071177;28;20034;-71
2021/12/12 00:12:23;;;;;;;14.82;7.22;;;6.40;99.90;;;;;;2071655;28;20018;-71
2021/12/12 00:13:32;;;;;;;14.00;6.55;;;6.40;99.90;;;;;;2071389;28;20230;-71
2021/12/12 00:14:34;;;;;;;14.80;6.50;;;6.50;99.90;;;;;;2071977;28;20488;-71
2021/12/12 00:15:35;;;;;;;16.13;7.35;;;6.50;99.90;;;;;;2071696;28;20471;-71
2021/12/12 00:16:36;;;;;;;14.52;7.15;;;6.40;99.90;;;;;;2071018;28;20390;-71
2021/12/12 00:17:38;;;;;;;14.30;6.43;;;6.50;99.90;;;;;;2070842;28;20494;-71
2021/12/12 00:18:39;;;;;;;15.85;6.85;;;6.40;99.90;;;;;;2071425;28;20057;-71
2021/12/12 00:19:40;;;;;;;15.43;7.03;;;6.50;99.90;;;;;;2070954;28;20096;-71
2021/12/12 00:20:42;;;;;;;18.33;5.97;;;6.50;99.90;;;;;;2071071;28;20018;-71
2021/12/12 00:21:47;;;;;;;13.00;6.40;;;6.50;99.90;;;;;;2071079;28;20018;-71
2021/12/12 00:22:48;;;;;;;17.42;6.60;;;6.50;99.90;;;;;;2071554;28;20656;-71
2021/12/12 00:23:49;;;;;;;13.25;6.63;;;6.50;99.90;;;;;;2071547;28;20549;-71
2021/12/12 00:24:50;;;;;;;12.45;6.60;;;6.50;99.90;;;;;;2070458;28;20792;-71
2021/12/12 00:25:54;;;;;;;14.07;6.60;;;6.50;99.90;;;;;;2071034;28;20037;-71
2021/12/12 00:26:56;;;;;;;14.25;6.53;;;6.50;99.90;;;;;;2075991;28;20112;-71
2021/12/12 00:27:58;;;;;;;13.50;6.20;;;6.50;99.90;;;;;;2074277;28;20060;-71
2021/12/12 00:28:58;;;;;;;14.70;6.50;;;6.50;99.90;;;;;;2071565;28;20502;-72
2021/12/12 00:30:03;;;;;;;17.33;5.90;;;6.50;99.90;;;;;;2071663;28;20447;-71
2021/12/12 00:31:10;;;;;;;12.70;6.82;;;6.50;99.90;;;;;;2071168;28;20080;-71
2021/12/12 00:32:14;;;;;;;12.35;6.82;;;6.50;99.90;;;;;;2071026;28;20038;-71
2021/12/12 00:33:15;;;;;;;15.65;6.72;;;6.50;99.90;;;;;;2070907;28;20021;-71
2021/12/12 00:34:16;;;;;;;20.13;6.63;;;6.50;99.90;;;;;;2070852;28;20612;-71
2021/12/12 00:35:18;;;;;;;16.65;6.88;;;6.50;99.90;;;;;;2071000;28;20033;-71
2021/12/12 00:36:19;;;;;;;15.73;5.88;;;6.50;99.90;;;;;;2071442;28;20018;-71
2021/12/12 00:37:21;;;;;;;14.48;6.45;;;6.50;99.90;;;;;;2071874;28;20070;-71
2021/12/12 00:38:31;;;;;;;15.50;6.65;;;6.50;99.90;;;;;;2071269;28;20056;-71
2021/12/12 00:39:34;;;;;;;10.63;6.15;;;6.50;99.90;;;;;;2069699;28;20056;-71
2021/12/12 00:40:38;;;;;;;15.88;6.47;;;6.50;99.90;;;;;;2071452;28;20026;-71
2021/12/12 00:42:02;;;;;;;17.00;6.65;;;6.50;99.90;;;;;;2070652;28;20426;-71
2021/12/12 00:43:14;;;;;;;9.88;5.78;;;6.50;99.90;;;;;;2065147;28;20510;-71
2021/12/12 00:44:15;;;;;;;13.50;6.40;;;6.50;99.90;;;;;;2071517;28;20030;-71
2021/12/12 00:45:17;;;;;;;16.85;6.00;;;6.50;99.90;;;;;;2071766;28;20121;-71
2021/12/12 00:46:20;;;;;;;14.88;5.60;;;6.50;99.90;;;;;;2071111;28;20389;-71
2021/12/12 00:47:22;;;;;;;16.88;5.70;;;6.50;99.90;;;;;;2071327;28;20037;-71
2021/12/12 00:48:24;;;;;;;12.25;5.53;;;6.50;99.90;;;;;;2071117;28;20196;-71
2021/12/12 00:49:26;;;;;;;12.35;5.68;;;6.50;99.90;;;;;;2071683;28;20029;-71
2021/12/12 00:50:34;;;;;;;11.50;5.60;;;6.50;99.90;;;;;;2071022;28;20462;-71
2021/12/12 00:51:37;;;;;;;10.52;5.32;;;6.50;99.90;;;;;;2070802;28;20418;-71
2021/12/12 00:52:41;;;;;;;13.60;5.85;;;6.50;99.90;;;;;;2071102;28;20092;-71
2021/12/12 00:53:43;;;;;;;11.80;5.47;;;6.50;99.90;;;;;;2071543;28;20030;-71
2021/12/12 00:54:44;;;;;;;13.73;5.35;;;6.50;99.90;;;;;;2070930;28;20026;-71
2021/12/12 00:55:46;;;;;;;19.70;5.47;;;6.50;99.90;;;;;;2071372;28;20021;-71
2021/12/12 00:56:48;;;;;;;13.23;5.10;;;6.40;99.90;;;;;;2071114;28;21066;-71
2021/12/12 00:57:53;;;;;;;10.25;4.70;;;6.50;99.90;;;;;;2071439;28;20028;-71
2021/12/12 00:58:54;;;;;;;14.80;5.70;;;6.50;99.90;;;;;;2071069;28;20463;-71
2021/12/12 00:59:55;;;;;;;8.77;4.88;;;6.50;99.90;;;;;;2071392;28;20030;-71
2021/12/12 01:01:01;;;;;;;9.55;4.82;;;6.50;99.90;;;;;;2071426;28;20025;-71
2021/12/12 01:02:06;;;;;;;11.75;5.22;;;6.50;99.90;;;;;;2071243;28;20033;-71
2021/12/12 01:03:09;;;;;;;13.10;4.63;;;6.50;99.90;;;;;;2070617;28;20394;-71
2021/12/12 01:04:21;;;;;;;12.73;5.10;;;6.50;99.90;;;;;;2071126;28;20022;-71
2021/12/12 01:05:23;;;;;;;14.82;5.22;;;6.50;99.90;;;;;;2067093;28;20101;-71
2021/12/12 01:06:25;;;;;;;15.63;5.97;;;6.50;99.90;;;;;;2077882;28;20025;-71
2021/12/12 01:07:31;;;;;;;12.90;5.22;;;6.50;99.90;;;;;;2072472;28;20038;-71
2021/12/12 01:08:32;;;;;;;13.00;4.90;;;6.50;99.90;;;;;;2074902;28;20053;-71
2021/12/12 01:09:38;;;;;;;11.43;4.90;;;6.50;99.90;;;;;;2071884;28;20496;-71
2021/12/12 01:10:45;;;;;;;14.23;5.35;;;6.50;99.90;;;;;;2067604;28;20021;-71
2021/12/12 01:11:49;;;;;;;13.07;5.03;;;6.50;99.90;;;;;;2070501;28;20026;-71
2021/12/12 01:12:51;;;;;;;12.93;5.07;;;6.50;99.90;;;;;;2070519;28;20083;-71
2021/12/12 01:13:52;;;;;;;13.23;4.95;;;6.50;99.90;;;;;;2071499;28;20028;-71
2021/12/12 01:15:21;;;;;;;9.45;4.68;;;6.50;99.90;;;;;;2073119;28;20156;-71
2021/12/12 01:16:30;;;;;;;13.45;4.85;;;6.50;99.90;;;;;;2067857;28;20041;-71
2021/12/12 01:17:38;;;;;;;11.30;4.95;;;6.50;99.90;;;;;;2071395;28;20557;-71
2021/12/12 01:18:46;;;;;;;12.10;5.30;;;6.50;99.90;;;;;;2070366;28;20034;-71
2021/12/12 01:20:09;;;;;;;16.38;5.18;;;6.50;99.90;;;;;;2070562;28;20556;-71
2021/12/12 01:21:20;;;;;;;10.60;4.65;;;6.50;99.90;;;;;;2070792;28;20569;-71
2021/12/12 01:22:30;;;;;;;13.43;5.03;;;6.50;99.90;;;;;;2071694;28;20026;-71
2021/12/12 01:23:36;;;;;;;11.18;4.82;;;6.50;99.90;;;;;;2071381;28;20029;-70
2021/12/12 01:24:45;;;;;;;16.00;5.35;;;6.50;99.90;;;;;;2071374;28;20474;-71
2021/12/12 01:25:48;;;;;;;14.90;5.25;;;6.50;99.90;;;;;;2071434;28;20034;-71
2021/12/12 01:26:48;;;;;;;15.70;5.32;;;6.50;99.90;;;;;;2071576;28;20049;-71
2021/12/12 01:27:51;;;;;;;11.68;4.80;;;6.50;99.90;;;;;;2075699;28;20022;-71
2021/12/12 01:28:54;;;;;;;10.90;4.85;;;6.50;99.90;;;;;;2070952;28;20022;-71
2021/12/12 01:29:55;;;;;;;11.40;4.32;;;6.50;99.90;;;;;;2070934;28;20026;-71
2021/12/12 01:30:59;;;;;;;11.18;5.13;;;6.50;99.90;;;;;;2071358;28;20029;-71
2021/12/12 01:32:03;;;;;;;10.65;4.32;;;6.60;99.90;;;;;;2070585;28;20117;-71
2021/12/12 01:33:04;;;;;;;12.88;4.75;;;6.60;99.90;;;;;;2071279;28;20038;-71
2021/12/12 01:34:14;;;;;;;12.48;4.75;;;6.60;99.90;;;;;;2071024;28;20030;-71
2021/12/12 01:35:18;;;;;;;11.13;4.88;;;6.60;99.90;;;;;;2071296;28;20034;-71
2021/12/12 01:36:44;;;;;;;12.23;4.25;;;6.50;99.90;;;;;;2071173;28;20026;-71
2021/12/12 01:39:12;;;;;;;8.57;4.50;;;6.50;99.90;;;;;;2061891;28;20038;-71
2021/12/12 01:40:26;;;;;;;13.90;4.85;;;6.50;99.90;;;;;;2069094;28;20034;-71
2021/12/12 01:41:38;;;;;;;12.13;4.53;;;6.50;99.90;;;;;;2062715;28;20023;-71
2021/12/12 01:43:10;;;;;;;9.95;4.57;;;6.50;99.90;;;;;;2067895;28;20084;-71
2021/12/12 01:44:17;;;;;;;10.65;4.47;;;6.50;99.90;;;;;;2070525;28;20032;-71
2021/12/12 01:45:33;;;;;;;12.85;4.20;;;6.50;99.90;;;;;;2070885;28;20068;-71
2021/12/12 01:46:40;;;;;;;10.18;4.28;;;6.50;99.90;;;;;;2071209;28;20034;-71
2021/12/12 01:47:44;;;;;;;13.65;4.72;;;6.50;99.90;;;;;;2071053;28;20018;-71
2021/12/12 01:48:53;;;;;;;9.70;4.25;;;6.50;99.90;;;;;;2070705;28;20088;-71
2021/12/12 01:49:59;;;;;;;11.45;4.43;;;6.60;99.90;;;;;;2071137;28;20065;-71
2021/12/12 01:51:05;;;;;;;12.25;4.47;;;6.50;99.90;;;;;;2071091;28;20018;-72
2021/12/12 01:52:08;;;;;;;14.00;4.65;;;6.50;99.90;;;;;;2070359;28;20025;-71
2021/12/12 01:53:13;;;;;;;14.95;4.65;;;6.50;99.90;;;;;;2070961;28;20458;-71
2021/12/12 01:54:22;;;;;;;10.15;4.57;;;6.60;99.90;;;;;;2071115;28;20022;-71
2021/12/12 01:55:37;;;;;;;10.32;4.55;;;6.60;99.90;;;;;;2071177;28;20041;-71
2021/12/12 01:56:43;;;;;;;10.43;4.43;;;6.60;99.90;;;;;;2071020;28;20023;-71
2021/12/12 01:57:43;;;;;;;11.38;3.85;;;6.60;99.90;;;;;;2078451;28;20025;-71
2021/12/12 01:58:47;;;;;;;11.05;4.25;;;6.60;99.90;;;;;;2078519;28;20029;-71
2021/12/12 01:59:49;;;;;;;8.88;4.28;;;6.60;99.90;;;;;;2070972;28;20030;-71
2021/12/12 02:00:49;;;;;;;16.08;4.60;;;6.60;99.90;;;;;;2070951;28;20022;-71
2021/12/12 02:02:13;;;;;;;11.88;4.40;;;6.60;99.90;;;;;;2070935;28;20096;-71
2021/12/12 02:03:17;;;;;;;12.30;4.00;;;6.60;99.90;;;;;;2070655;28;20073;-71
2021/12/12 02:04:22;;;;;;;10.70;4.22;;;6.60;99.90;;;;;;2071459;28;20037;-71
2021/12/12 02:05:26;;;;;;;8.48;4.05;;;6.60;99.90;;;;;;2071104;28;20037;-71
2021/12/12 02:06:28;;;;;;;12.18;4.03;;;6.60;99.90;;;;;;2071237;28;20101;-71
2021/12/12 02:07:33;;;;;;;8.20;3.65;;;6.60;99.90;;;;;;2070873;28;20116;-71
2021/12/12 02:08:35;;;;;;;9.68;4.63;;;6.60;99.90;;;;;;2070893;28;20055;-71
2021/12/12 02:09:36;;;;;;;7.68;3.78;;;6.60;99.90;;;;;;2071265;28;20049;-71
2021/12/12 02:10:44;;;;;;;5.65;3.40;;;6.60;99.90;;;;;;2071047;28;20022;-71
2021/12/12 02:11:46;;;;;;;10.98;4.57;;;6.60;99.90;;;;;;2070415;28;20049;-71
2021/12/12 02:12:47;;;;;;;10.07;4.13;;;6.60;99.90;;;;;;2071311;28;20022;-71
2021/12/12 02:13:51;;;;;;;11.40;4.32;;;6.60;99.90;;;;;;2074042;28;20025;-71
2021/12/12 02:14:53;;;;;;;11.05;4.03;;;6.60;99.90;;;;;;2073670;28;20344;-71
2021/12/12 02:15:57;;;;;;;12.20;4.80;;;6.60;99.90;;;;;;2072292;28;20113;-71
2021/12/12 02:17:17;;;;;;;9.75;4.63;;;6.60;99.90;;;;;;2072742;28;20033;-71
2021/12/12 02:18:25;;;;;;;8.33;3.47;;;6.60;99.90;;;;;;2071487;28;20085;-71
2021/12/12 02:19:34;;;;;;;12.48;3.88;;;6.60;99.90;;;;;;2072195;28;20352;-71
2021/12/12 02:20:45;;;;;;;9.18;4.30;;;6.60;99.90;;;;;;2076772;28;20754;-71
2021/12/12 02:22:01;;;;;;;10.93;3.83;;;6.60;99.90;;;;;;2072648;28;20385;-71
2021/12/12 02:23:22;;;;;;;10.82;4.35;;;6.60;99.90;;;;;;2072566;28;20475;-71
2021/12/12 02:35:21;;;;;;;8.07;3.40;;;6.60;99.90;;;;;;2064676;28;20101;-71
2021/12/12 02:36:22;;;;;;;8.57;3.90;;;6.60;99.90;;;;;;2070842;28;20025;-71
2021/12/12 02:37:23;;;;;;;8.90;3.53;;;6.60;99.90;;;;;;2072151;28;20022;-71
2021/12/12 02:38:28;;;;;;;13.55;4.30;;;6.60;99.90;;;;;;2074641;28;20025;-71
2021/12/12 02:39:29;;;;;;;9.35;3.88;;;6.60;99.90;;;;;;2077592;28;20028;-71
2021/12/12 02:40:33;;;;;;;10.32;3.58;;;6.60;99.90;;;;;;2073876;28;20029;-71
2021/12/12 02:41:34;;;;;;;10.00;3.90;;;6.70;99.90;;;;;;2075829;28;20025;-71
2021/12/12 02:42:36;;;;;;;9.13;3.70;;;6.70;99.90;;;;;;2079222;28;20026;-71
2021/12/12 02:43:49;;;;;;;13.02;4.15;;;6.70;99.90;;;;;;2078453;28;20386;-71
2021/12/12 02:44:56;;;;;;;7.97;3.08;;;6.70;99.90;;;;;;2078668;28;20424;-71
2021/12/12 02:45:57;;;;;;;8.05;3.20;;;6.70;99.90;;;;;;2073595;28;20489;-71
2021/12/12 02:47:01;;;;;;;8.35;3.67;;;6.70;99.90;;;;;;2077767;28;20032;-71
2021/12/12 02:48:06;;;;;;;10.88;3.80;;;6.80;99.90;;;;;;2072481;28;20029;-71
2021/12/12 02:49:23;;;;;;;11.88;4.13;;;6.80;99.90;;;;;;2077512;28;20140;-71
2021/12/12 02:50:29;;;;;;;7.20;3.25;;;6.80;99.90;;;;;;2074759;28;20021;-71
2021/12/12 02:51:30;;;;;;;9.95;4.30;;;6.80;99.90;;;;;;2072378;28;20018;-71
2021/12/12 02:52:31;;;;;;;7.60;3.63;;;6.80;99.90;;;;;;2075536;28;20029;-71
2021/12/12 02:54:03;;;;;;;9.23;4.10;;;6.80;99.90;;;;;;2073017;28;20014;-71
2021/12/12 02:55:33;;;;;;;12.45;3.33;;;6.80;99.90;;;;;;2074149;28;20048;-71
2021/12/12 02:56:41;;;;;;;11.50;3.97;;;6.70;99.90;;;;;;2069228;28;20030;-71
2021/12/12 02:57:42;;;;;;;8.70;3.75;;;6.80;99.90;;;;;;2068069;28;20073;-71
2021/12/12 02:58:44;;;;;;;8.07;3.45;;;6.80;99.90;;;;;;2068416;28;20080;-71
2021/12/12 02:59:50;;;;;;;8.40;3.90;;;6.80;99.90;;;;;;2075117;28;20374;-71
2021/12/12 03:01:11;;;;;;;8.93;3.80;;;6.80;99.90;;;;;;2077752;28;20385;-71
2021/12/12 03:02:20;;;;;;;9.32;3.75;;;6.80;99.90;;;;;;2066835;28;20030;-71
2021/12/12 03:03:21;;;;;;;9.43;3.47;;;6.80;99.90;;;;;;2088514;28;21762;-71
2021/12/12 03:04:25;;;;;;;8.90;3.50;;;6.80;99.90;;;;;;2087265;28;20497;-71
2021/12/12 03:05:29;;;;;;;7.53;3.92;;;6.80;99.90;;;;;;2074743;28;20409;-71
2021/12/12 03:06:32;;;;;;;12.55;3.70;;;6.80;99.90;;;;;;2073645;28;20048;-71
2021/12/12 03:07:33;;;;;;;10.93;3.55;;;6.90;99.90;;;;;;2073270;28;20034;-71
2021/12/12 03:08:35;;;;;;;9.07;3.28;;;6.80;99.90;;;;;;2073428;28;20547;-71
2021/12/12 03:09:46;;;;;;;8.60;3.67;;;6.90;99.90;;;;;;2073236;28;20061;-71
2021/12/12 03:10:49;;;;;;;11.32;3.92;;;6.90;99.90;;;;;;2073557;28;20030;-71
2021/12/12 03:11:56;;;;;;;10.02;3.60;;;6.90;99.90;;;;;;2072631;28;20037;-71
2021/12/12 03:12:57;;;;;;;7.97;3.20;;;6.90;99.90;;;;;;2073409;28;20105;-71
2021/12/12 03:13:58;;;;;;;7.82;3.40;;;6.90;99.90;;;;;;2073453;28;20494;-71
2021/12/12 03:15:11;;;;;;;6.95;3.00;;;7.00;99.90;;;;;;2073526;28;20022;-71
2021/12/12 03:16:12;;;;;;;9.15;3.35;;;7.00;99.90;;;;;;2081216;28;20021;-71
2021/12/12 03:17:18;;;;;;;12.88;4.00;;;6.90;99.90;;;;;;2080527;28;20026;-71
2021/12/12 03:18:26;;;;;;;9.20;3.53;;;6.90;99.90;;;;;;2073322;28;20101;-71
2021/12/12 03:19:27;;;;;;;9.90;3.90;;;7.00;99.90;;;;;;2072934;28;20014;-71
2021/12/12 03:20:34;;;;;;;9.90;3.70;;;7.00;99.90;;;;;;2073408;28;20021;-71
2021/12/12 03:21:42;;;;;;;9.25;3.78;;;7.00;99.90;;;;;;2072702;28;20034;-71
2021/12/12 03:22:43;;;;;;;8.38;3.22;;;7.00;99.90;;;;;;2079344;28;20025;-71
2021/12/12 03:23:48;;;;;;;9.50;4.00;;;7.00;99.90;;;;;;2073447;28;20038;-71
2021/12/12 03:24:49;;;;;;;10.90;3.60;;;7.00;99.90;;;;;;2073717;28;20026;-71
2021/12/12 03:25:59;;;;;;;8.70;3.15;;;7.00;99.90;;;;;;2072329;28;20028;-71
2021/12/12 03:27:02;;;;;;;10.07;3.58;;;7.00;99.90;;;;;;2072488;28;20018;-71
2021/12/12 03:28:05;;;;;;;10.43;3.33;;;7.00;99.90;;;;;;2074763;28;20018;-71
2021/12/12 03:29:06;;;;;;;8.82;3.47;;;7.10;99.90;;;;;;2073102;28;20044;-71
2021/12/12 03:30:08;;;;;;;9.25;3.47;;;7.10;99.90;;;;;;2073322;28;20034;-71
2021/12/12 03:31:15;;;;;;;8.13;3.45;;;7.00;99.90;;;;;;2073361;28;20037;-71
2021/12/12 03:32:19;;;;;;;11.35;3.90;;;7.10;99.90;;;;;;2072380;28;20025;-71
2021/12/12 03:33:20;;;;;;;8.85;3.30;;;7.10;99.90;;;;;;2073044;28;20037;-71
2021/12/12 03:34:24;;;;;;;11.15;3.80;;;7.10;99.90;;;;;;2073219;28;20028;-71
2021/12/12 03:35:25;;;;;;;14.77;4.70;;;7.10;99.90;;;;;;2073569;28;20126;-71
2021/12/12 03:36:27;;;;;;;10.38;3.65;;;7.10;99.90;;;;;;2073141;28;20113;-71
2021/12/12 03:37:30;;;;;;;11.77;3.70;;;7.10;99.90;;;;;;2073188;28;20014;-71
2021/12/12 03:38:32;;;;;;;8.32;3.25;;;7.10;99.90;;;;;;2073335;28;20025;-71
2021/12/12 03:39:38;;;;;;;11.82;3.67;;;7.10;99.90;;;;;;2073440;28;20018;-71
2021/12/12 03:40:40;;;;;;;10.27;3.60;;;7.10;99.90;;;;;;2072956;28;20014;-71
2021/12/12 03:41:41;;;;;;;8.98;3.67;;;7.10;99.90;;;;;;2072495;28;20100;-71
2021/12/12 03:42:43;;;;;;;10.63;3.65;;;7.10;99.90;;;;;;2073245;28;20022;-71
2021/12/12 03:43:48;;;;;;;8.60;3.42;;;7.10;99.90;;;;;;2072653;28;20045;-71
2021/12/12 03:44:50;;;;;;;13.13;4.35;;;7.10;99.90;;;;;;2072596;28;20022;-71
2021/12/12 03:45:51;;;;;;;8.98;3.42;;;7.10;99.90;;;;;;2073340;28;20037;-71
2021/12/12 03:46:56;;;;;;;10.88;4.00;;;7.10;99.90;;;;;;2073140;28;20422;-71
2021/12/12 03:48:04;;;;;;;11.20;3.40;;;7.10;99.90;;;;;;2073024;28;20035;-71
2021/12/12 03:49:07;;;;;;;9.95;3.80;;;7.10;99.90;;;;;;2073044;28;20124;-71
2021/12/12 03:50:17;;;;;;;11.00;3.67;;;7.10;99.90;;;;;;2073008;28;20475;-71
2021/12/12 03:51:19;;;;;;;;;;;7.20;99.90;;;;;;2073444;28;20080;-71
2021/12/12 03:52:21;;;;;;;12.20;3.40;;;7.10;99.90;;;;;;2073045;28;19979;-71
2021/12/12 03:53:24;;;;;;;10.27;4.07;;;7.10;99.90;;;;;;2073029;28;20179;-71
2021/12/12 03:54:25;;;;;;;9.60;4.07;;;7.10;99.90;;;;;;2072709;28;20448;-71
2021/12/12 03:55:27;;;;;;;11.43;3.78;;;7.10;99.90;;;;;;2072537;28;20092;-71
2021/12/12 03:56:28;;;;;;;13.68;4.05;;;7.10;99.90;;;;;;2074418;28;20045;-71
2021/12/12 03:57:30;;;;;;;13.98;4.35;;;7.10;99.90;;;;;;2072882;28;20022;-71
2021/12/12 03:58:31;;;;;;;6.65;3.25;;;7.20;99.90;;;;;;2073168;28;20374;-71
2021/12/12 03:59:32;;;;;;;7.50;3.25;;;7.20;99.90;;;;;;2073215;28;20108;-71
2021/12/12 04:00:48;;;;;;;14.32;4.13;;;7.20;99.90;;;;;;2073222;28;20422;-71
2021/12/12 04:01:51;;;;;;;10.88;3.88;;;7.20;99.90;;;;;;2069117;28;20029;-71
2021/12/12 04:02:52;;;;;;;11.13;4.07;;;7.20;99.90;;;;;;2064029;28;20446;-71
2021/12/12 04:03:55;;;;;;;9.80;3.25;;;7.20;99.90;;;;;;2069894;28;20045;-71
2021/12/12 04:04:57;;;;;;;8.27;3.80;;;7.20;99.90;;;;;;2072087;28;20022;-71
2021/12/12 04:06:01;;;;;;;12.27;4.13;;;7.20;99.90;;;;;;2072187;28;20028;-71
2021/12/12 04:07:10;;;;;;;8.10;3.35;;;7.20;99.90;;;;;;2072368;28;20037;-71
2021/12/12 04:08:11;;;;;;;10.10;3.42;;;7.30;99.90;;;;;;2071938;28;20034;-71
2021/12/12 04:09:13;;;;;;;6.18;3.53;;;7.20;99.90;;;;;;2072144;28;20114;-71
2021/12/12 04:10:19;;;;;;;10.20;3.35;;;7.20;99.90;;;;;;2070042;28;20033;-71
2021/12/12 04:11:25;;;;;;;9.98;3.55;;;7.20;99.90;;;;;;2071658;28;20101;-71
2021/12/12 04:12:27;;;;;;;8.27;3.22;;;7.20;99.90;;;;;;2071239;28;20030;-71
2021/12/12 04:13:28;;;;;;;10.75;3.50;;;7.30;99.90;;;;;;2071874;28;20014;-71
2021/12/12 04:14:29;;;;;;;10.65;3.47;;;7.30;99.90;;;;;;2071773;28;20530;-71
2021/12/12 04:15:29;;;;;;;11.60;4.03;;;7.30;99.90;;;;;;2079129;28;20532;-71
2021/12/12 04:16:33;;;;;;;9.02;3.30;;;7.30;99.90;;;;;;2079263;28;20051;-71
2021/12/12 04:17:34;;;;;;;10.93;3.47;;;7.30;99.90;;;;;;2071869;28;20028;-71
2021/12/12 04:18:35;;;;;;;8.50;3.22;;;7.30;99.90;;;;;;2071685;28;20040;-72
2021/12/12 04:19:36;;;;;;;10.32;3.72;;;7.30;99.90;;;;;;2079284;28;20588;-71
2021/12/12 04:20:38;;;;;;;9.70;3.40;;;7.30;99.90;;;;;;2079280;28;20032;-72
2021/12/12 04:21:39;;;;;;;13.35;4.00;;;7.30;99.90;;;;;;2067033;28;20022;-71
2021/12/12 04:22:40;;;;;;;10.02;3.67;;;7.30;99.90;;;;;;2062982;28;20022;-71
2021/12/12 04:23:40;;;;;;;11.23;3.58;;;7.30;99.90;;;;;;2071318;28;20021;-71
2021/12/12 04:24:44;;;;;;;12.40;3.72;;;7.30;99.90;;;;;;2070802;28;20914;-71
2021/12/12 04:25:46;;;;;;;8.55;3.50;;;7.30;99.90;;;;;;2071267;28;20034;-71
2021/12/12 04:26:47;;;;;;;8.18;3.55;;;7.30;99.90;;;;;;2071544;28;20598;-71
2021/12/12 04:27:47;;;;;;;11.00;3.33;;;7.30;99.90;;;;;;2073967;28;20030;-71
2021/12/12 04:29:18;;;;;;;12.40;3.78;;;7.30;99.90;;;;;;2071548;28;20363;-71
2021/12/12 04:30:23;;;;;;;8.65;3.70;;;7.30;99.90;;;;;;2062939;28;20510;-71
2021/12/12 04:31:24;;;;;;;9.55;3.72;;;7.30;99.90;;;;;;2069263;28;20022;-71
2021/12/12 04:32:27;;;;;;;11.80;3.70;;;7.30;99.90;;;;;;2070906;28;20105;-72
2021/12/12 04:33:28;;;;;;;12.23;3.63;;;7.30;99.90;;;;;;2071622;28;20069;-72
2021/12/12 04:34:33;;;;;;;13.18;4.20;;;7.30;99.90;;;;;;2071477;28;20026;-72
2021/12/12 04:35:35;;;;;;;10.80;3.28;;;7.30;99.90;;;;;;2071755;28;20089;-72
2021/12/12 04:36:44;;;;;;;9.52;3.53;;;7.30;99.90;;;;;;2070500;28;20034;-72
2021/12/12 04:37:46;;;;;;;12.18;3.95;;;7.30;99.90;;;;;;2070919;28;20097;-72
2021/12/12 04:38:47;;;;;;;9.43;3.03;;;7.30;99.90;;;;;;2071631;28;20030;-72
2021/12/12 04:39:50;;;;;;;12.32;3.70;;;7.30;99.90;;;;;;2071573;28;20030;-71
2021/12/12 04:40:51;;;;;;;12.55;3.47;;;7.30;99.90;;;;;;2071411;28;20030;-72
2021/12/12 04:41:57;;;;;;;11.60;3.78;;;7.30;99.90;;;;;;2070864;28;20096;-72
2021/12/12 04:42:59;;;;;;;10.05;3.40;;;7.40;99.90;;;;;;2071356;28;20033;-72
2021/12/12 04:44:00;;;;;;;9.68;3.58;;;7.30;99.90;;;;;;2071596;28;20838;-71
2021/12/12 04:45:26;;;;;;;12.05;3.80;;;7.30;99.90;;;;;;2071414;28;20382;-72
2021/12/12 04:46:37;;;;;;;9.27;3.58;;;7.40;99.90;;;;;;2071078;28;20473;-72
2021/12/12 04:51:13;;;;;;;7.70;3.40;;;7.30;99.90;;;;;;2071555;28;20037;-72
2021/12/12 04:52:14;;;;;;;13.60;3.85;;;7.20;99.90;;;;;;2061607;28;20042;-71
2021/12/12 04:53:36;;;;;;;11.13;3.70;;;7.20;99.90;;;;;;2063546;28;20117;-72
2021/12/12 04:54:45;;;;;;;13.90;4.03;;;7.20;99.90;;;;;;2070721;28;20033;-72
2021/12/12 04:56:11;;;;;;;10.63;3.28;;;7.30;99.90;;;;;;2071259;28;20512;-72
2021/12/12 04:57:29;;;;;;;10.80;3.40;;;7.20;99.90;;;;;;2071509;28;20029;-72
2021/12/12 04:58:41;;;;;;;10.73;3.47;;;7.20;99.90;;;;;;2071593;28;20034;-72
2021/12/12 04:59:45;;;;;;;11.90;3.28;;;7.20;99.90;;;;;;2070762;28;20050;-72
2021/12/12 05:00:54;;;;;;;15.98;3.25;;;7.20;99.90;;;;;;2071174;28;20037;-72
2021/12/12 05:02:05;;;;;;;14.90;3.97;;;7.20;99.90;;;;;;2068262;28;20045;-72
2021/12/12 05:03:33;;;;;;;11.35;3.40;;;7.20;99.90;;;;;;2063000;28;20022;-71
2021/12/12 05:04:46;;;;;;;13.25;3.60;;;7.20;99.90;;;;;;2067127;28;20481;-71
2021/12/12 05:05:46;;;;;;;8.75;3.60;;;7.20;99.90;;;;;;2067674;28;20640;-72
2021/12/12 05:07:02;;;;;;;8.43;3.72;;;7.20;99.90;;;;;;2071472;28;20026;-72
2021/12/12 05:08:26;;;;;;;11.88;3.38;;;7.20;99.90;;;;;;2070440;28;20812;-71
2021/12/12 05:09:49;;;;;;;13.23;3.63;;;7.20;99.90;;;;;;2066455;28;20024;-71
2021/12/12 05:11:03;;;;;;;10.35;3.78;;;7.20;99.90;;;;;;2069353;28;20040;-71
2021/12/12 05:12:23;;;;;;;11.57;3.80;;;7.20;99.90;;;;;;2068148;28;20088;-72
2021/12/12 05:13:34;;;;;;;9.93;3.13;;;7.20;99.90;;;;;;2068039;28;20022;-72
2021/12/12 05:14:38;;;;;;;12.45;3.47;;;7.20;99.90;;;;;;2067148;28;20030;-72
2021/12/12 05:15:45;;;;;;;11.10;3.10;;;7.20;99.90;;;;;;2079193;28;20076;-71
2021/12/12 05:16:46;;;;;;;14.55;3.80;;;7.30;99.90;;;;;;2077947;28;20017;-72
2021/12/12 05:17:56;;;;;;;8.65;3.58;;;7.30;99.90;;;;;;2071568;28;20125;-72
2021/12/12 05:19:05;;;;;;;13.50;3.45;;;7.30;99.90;;;;;;2070483;28;20053;-72
2021/12/12 05:20:12;;;;;;;18.67;4.25;;;7.30;99.90;;;;;;2070760;28;20065;-72
2021/12/12 05:21:14;;;;;;;10.35;3.45;;;7.30;99.90;;;;;;2069380;28;20019;-72
2021/12/12 05:22:19;;;;;;;10.45;3.80;;;7.30;99.90;;;;;;2070449;28;20420;-72
2021/12/12 05:23:24;;;;;;;13.32;3.63;;;7.30;99.90;;;;;;2071310;28;20030;-72
2021/12/12 05:24:28;;;;;;;13.32;4.07;;;7.30;99.90;;;;;;2071671;28;21031;-72
2021/12/12 05:25:53;;;;;;;12.18;4.00;;;7.30;99.90;;;;;;2071561;28;20084;-72
2021/12/12 05:26:57;;;;;;;9.48;3.60;;;7.30;99.90;;;;;;2068000;28;20045;-72
2021/12/12 05:27:58;;;;;;;13.88;3.88;;;7.30;99.90;;;;;;2071453;28;20141;-72
2021/12/12 05:29:19;;;;;;;8.73;3.22;;;7.30;99.90;;;;;;2071529;28;20022;-72
2021/12/12 05:30:27;;;;;;;13.95;4.25;;;7.30;99.90;;;;;;2071568;28;20038;-71
2021/12/12 05:31:28;;;;;;;13.05;4.10;;;7.30;99.90;;;;;;2071113;28;20053;-72
2021/12/12 05:32:31;;;;;;;11.18;4.32;;;7.30;99.90;;;;;;2070794;28;20359;-72
2021/12/12 05:33:32;;;;;;;10.38;3.83;;;7.30;99.90;;;;;;2071144;28;20033;-72
2021/12/12 05:34:36;;;;;;;10.85;4.38;;;7.30;99.90;;;;;;2071368;28;20028;-72
2021/12/12 05:35:39;;;;;;;12.52;3.90;;;7.30;99.90;;;;;;2071196;28;20029;-72
2021/12/12 05:36:40;;;;;;;9.52;3.90;;;7.30;99.90;;;;;;2071112;28;20052;-72
2021/12/12 05:37:42;;;;;;;13.40;4.50;;;7.30;99.90;;;;;;2070901;28;20458;-72
2021/12/12 05:38:44;;;;;;;9.13;3.97;;;7.30;99.90;;;;;;2071214;28;20104;-72
2021/12/12 05:39:47;;;;;;;15.70;4.60;;;7.30;99.90;;;;;;2066345;28;20072;-72
2021/12/12 05:40:49;;;;;;;8.02;3.78;;;7.30;99.90;;;;;;2068941;28;20377;-72
2021/12/12 05:41:52;;;;;;;8.38;4.20;;;7.30;99.90;;;;;;2071324;28;20033;-72
2021/12/12 05:42:58;;;;;;;12.77;4.25;;;7.40;99.90;;;;;;2071354;28;20072;-72
2021/12/12 05:43:59;;;;;;;12.55;3.85;;;7.40;99.90;;;;;;2070916;28;20355;-72
2021/12/12 05:45:01;;;;;;;16.85;4.22;;;7.30;99.90;;;;;;2071475;28;20048;-72
2021/12/12 05:46:03;;;;;;;10.52;4.18;;;7.30;99.90;;;;;;2071165;28;20026;-72
2021/12/12 05:47:06;;;;;;;9.93;3.95;;;7.40;99.90;;;;;;2071224;28;20530;-72
2021/12/12 05:48:09;;;;;;;15.20;4.05;;;7.40;99.90;;;;;;2062959;28;20085;-72
2021/12/12 05:49:11;;;;;;;17.48;4.78;;;7.40;99.90;;;;;;2071157;28;20022;-72
2021/12/12 05:50:15;;;;;;;11.63;3.90;;;7.40;99.90;;;;;;2072603;28;20029;-72
2021/12/12 05:51:16;;;;;;;9.73;3.95;;;7.40;99.90;;;;;;2073231;28;20030;-72
2021/12/12 05:52:20;;;;;;;11.02;4.05;;;7.40;99.90;;;;;;2071217;28;20022;-72
2021/12/12 05:53:21;;;;;;;11.43;4.68;;;7.40;99.90;;;;;;2068126;28;20400;-72
2021/12/12 05:54:24;;;;;;;13.85;4.47;;;7.30;99.90;;;;;;2072077;28;20097;-73
2021/12/12 05:55:31;;;;;;;8.18;4.28;;;7.40;99.90;;;;;;2072125;28;20034;-72
2021/12/12 05:56:36;;;;;;;13.98;4.22;;;7.40;99.90;;;;;;2072839;28;20068;-72
2021/12/12 05:57:38;;;;;;;11.73;4.10;;;7.40;99.90;;;;;;2072207;28;20466;-72
2021/12/12 05:58:39;;;;;;;13.55;4.38;;;7.30;99.90;;;;;;2072642;28;20433;-72
2021/12/12 05:59:40;;;;;;;12.45;3.92;;;7.30;99.90;;;;;;2072742;28;20588;-72